createdAt,value
2018-11-23T00:00:13.194Z,34.10
2018-11-23T00:02:42.387Z,33.57
2018-11-23T00:05:10.954Z,31.40
2018-11-23T00:07:39.683Z,35.40
2018-11-23T00:10:11.286Z,31.27
2018-11-23T00:12:39.529Z,36.93
2018-11-23T00:15:11.460Z,31.53
2018-11-23T00:17:40.040Z,32.77
2018-11-23T00:20:11.314Z,29.80
2018-11-23T00:22:40.107Z,29.77
2018-11-23T00:25:10.476Z,29.77
2018-11-23T00:27:39.419Z,32.40
2018-11-23T00:30:10.735Z,30.23
2018-11-23T00:32:39.252Z,30.50
2018-11-23T00:35:10.337Z,32.73
2018-11-23T00:37:38.738Z,32.03
2018-11-23T00:40:09.379Z,40.67
2018-11-23T00:42:37.815Z,31.80
2018-11-23T00:45:07.968Z,29.10
2018-11-23T00:47:36.603Z,33.00
2018-11-23T00:50:05.272Z,28.27
2018-11-23T00:52:33.663Z,32.33
2018-11-23T00:55:02.044Z,34.17
2018-11-23T00:57:30.439Z,29.60
2018-11-23T00:59:58.801Z,30.37
2018-11-23T01:02:27.241Z,31.20
2018-11-23T01:04:55.860Z,32.60
2018-11-23T01:07:24.278Z,30.33
2018-11-23T01:09:52.635Z,32.43
2018-11-23T01:12:21.041Z,28.40
2018-11-23T01:14:49.418Z,31.10
2018-11-23T01:17:17.840Z,33.50
2018-11-23T01:19:47.300Z,31.97
2018-11-23T01:22:15.688Z,27.23
2018-11-23T01:24:44.051Z,31.23
2018-11-23T01:27:12.440Z,32.80
2018-11-23T01:29:40.809Z,32.30
2018-11-23T01:32:09.207Z,35.47
2018-11-23T01:34:37.627Z,35.13
2018-11-23T01:37:06.196Z,45.40
2018-11-23T01:39:34.619Z,32.07
2018-11-23T01:42:03.012Z,33.53
2018-11-23T01:44:35.579Z,32.33
2018-11-23T01:47:03.979Z,28.37
2018-11-23T01:49:32.331Z,30.90
2018-11-23T01:52:00.719Z,32.70
2018-11-23T01:54:29.495Z,35.27
2018-11-23T01:56:57.886Z,33.50
2018-11-23T01:59:26.235Z,29.80
2018-11-23T02:01:54.601Z,32.50
2018-11-23T02:04:22.940Z,32.43
2018-11-23T02:06:51.285Z,29.43
2018-11-23T02:09:19.637Z,31.10
2018-11-23T02:11:47.971Z,33.90
2018-11-23T02:14:16.445Z,31.90
2018-11-23T02:16:44.806Z,30.63
2018-11-23T02:19:13.161Z,30.83
2018-11-23T02:21:41.503Z,36.30
2018-11-23T02:24:09.835Z,30.97
2018-11-23T02:26:38.228Z,37.93
2018-11-23T02:29:06.576Z,30.47
2018-11-23T02:31:37.410Z,32.97
2018-11-23T02:34:07.089Z,31.00
2018-11-23T02:36:35.468Z,27.67
2018-11-23T02:39:04.152Z,28.57
2018-11-23T02:41:32.519Z,29.70
2018-11-23T02:44:00.964Z,27.50
2018-11-23T02:46:29.340Z,29.20
2018-11-23T02:48:57.696Z,27.77
2018-11-23T02:51:26.051Z,34.50
2018-11-23T02:53:54.386Z,37.27
2018-11-23T02:56:22.796Z,35.03
2018-11-23T02:58:51.120Z,30.60
2018-11-23T03:01:19.459Z,36.47
2018-11-23T03:03:47.931Z,33.67
2018-11-23T03:06:16.320Z,34.37
2018-11-23T03:08:44.708Z,39.00
2018-11-23T03:11:13.073Z,33.40
2018-11-23T03:13:41.412Z,40.67
2018-11-23T03:16:09.761Z,42.40
2018-11-23T03:18:38.757Z,36.83
2018-11-23T03:21:07.122Z,36.40
2018-11-23T03:23:35.460Z,39.20
2018-11-23T03:26:03.858Z,32.20
2018-11-23T03:28:32.186Z,50.93
2018-11-23T03:31:00.535Z,35.10
2018-11-23T03:33:28.897Z,42.93
2018-11-23T03:35:57.259Z,33.43
2018-11-23T03:38:25.636Z,30.73
2018-11-23T03:40:54.030Z,32.00
2018-11-23T03:43:22.397Z,40.10
2018-11-23T03:45:50.776Z,36.07
2018-11-23T03:48:19.152Z,38.07
2018-11-23T03:50:47.495Z,62.63
2018-11-23T03:53:15.892Z,41.03
2018-11-23T03:55:44.299Z,38.70
2018-11-23T03:58:12.701Z,44.73
2018-11-23T04:00:41.161Z,29.27
2018-11-23T04:03:09.562Z,30.70
2018-11-23T04:05:37.960Z,27.97
2018-11-23T04:08:06.384Z,29.80
2018-11-23T04:10:34.967Z,31.03
2018-11-23T04:13:03.378Z,31.47
2018-11-23T04:15:31.852Z,30.17
2018-11-23T04:18:00.268Z,31.47
2018-11-23T04:20:28.964Z,33.17
2018-11-23T04:22:57.363Z,33.17
2018-11-23T04:25:25.764Z,31.77
2018-11-23T04:27:54.192Z,34.27
2018-11-23T04:30:22.570Z,29.17
2018-11-23T04:32:50.975Z,33.37
2018-11-23T04:35:19.926Z,27.37
2018-11-23T04:37:48.835Z,29.23
2018-11-23T04:40:18.323Z,28.13
2018-11-23T04:42:46.727Z,30.97
2018-11-23T04:45:15.340Z,30.80
2018-11-23T04:47:43.876Z,27.53
2018-11-23T04:50:14.186Z,31.13
2018-11-23T04:52:42.934Z,29.73
2018-11-23T04:55:11.588Z,29.60
2018-11-23T04:57:40.101Z,28.93
2018-11-23T05:00:13.863Z,30.57
2018-11-23T05:02:42.692Z,24.93
2018-11-23T05:05:11.656Z,30.33
2018-11-23T05:07:40.183Z,30.73
2018-11-23T05:10:10.583Z,29.93
2018-11-23T05:12:39.153Z,30.00
2018-11-23T05:15:08.552Z,31.47
2018-11-23T05:17:37.240Z,26.33
2018-11-23T05:20:06.492Z,31.17
2018-11-23T05:22:35.226Z,30.77
2018-11-23T05:25:03.627Z,29.37
2018-11-23T05:27:32.104Z,29.90
2018-11-23T05:30:00.507Z,28.20
2018-11-23T05:32:28.923Z,116.47
2018-11-23T05:34:57.327Z,30.60
2018-11-23T05:37:25.841Z,36.20
2018-11-23T05:39:54.257Z,49.17
2018-11-23T05:42:22.623Z,60.47
2018-11-23T05:44:51.191Z,36.97
2018-11-23T05:47:20.276Z,31.53
2018-11-23T05:49:48.692Z,30.63
2018-11-23T05:52:17.052Z,35.77
2018-11-23T05:54:45.419Z,37.83
2018-11-23T05:57:13.845Z,37.70
2018-11-23T05:59:42.255Z,34.53
2018-11-23T06:02:10.706Z,36.03
2018-11-23T06:04:39.106Z,35.67
2018-11-23T06:07:07.483Z,36.40
2018-11-23T06:09:36.203Z,37.90
2018-11-23T06:12:04.627Z,31.43
2018-11-23T06:14:32.998Z,39.70
2018-11-23T06:17:01.404Z,42.00
2018-11-23T06:19:29.747Z,42.17
2018-11-23T06:21:58.146Z,38.70
2018-11-23T06:24:31.977Z,37.20
2018-11-23T06:26:55.214Z,36.53
2018-11-23T06:29:23.685Z,35.90
2018-11-23T06:31:52.268Z,38.90
2018-11-23T06:34:20.612Z,40.20
2018-11-23T06:36:48.971Z,36.77
2018-11-23T06:39:17.870Z,37.60
2018-11-23T06:41:47.519Z,45.60
2018-11-23T06:44:16.511Z,45.33
2018-11-23T06:46:44.855Z,40.27
2018-11-23T06:49:13.326Z,37.93
2018-11-23T06:51:41.739Z,36.40
2018-11-23T06:54:14.403Z,36.93
2018-11-23T06:56:38.624Z,41.93
2018-11-23T06:59:07.039Z,36.50
2018-11-23T07:01:35.406Z,43.03
2018-11-23T07:04:03.803Z,37.47
2018-11-23T07:06:32.171Z,38.10
2018-11-23T07:09:00.561Z,37.33
2018-11-23T07:11:29.046Z,40.17
2018-11-23T07:14:03.757Z,38.87
2018-11-23T07:16:25.793Z,40.80
2018-11-23T07:18:54.194Z,40.70
2018-11-23T07:21:22.555Z,36.63
2018-11-23T07:23:50.975Z,36.80
2018-11-23T07:26:19.344Z,36.20
2018-11-23T07:28:47.703Z,41.07
2018-11-23T07:31:16.063Z,36.47
2018-11-23T07:33:44.611Z,34.90
2018-11-23T07:36:12.991Z,40.30
2018-11-23T07:38:41.479Z,39.17
2018-11-23T07:41:21.216Z,42.20
2018-11-23T07:43:49.623Z,40.40
2018-11-23T07:46:17.994Z,42.00
2018-11-23T07:48:46.354Z,41.67
2018-11-23T07:51:14.693Z,40.00
2018-11-23T07:53:43.095Z,43.30
2018-11-23T07:56:11.515Z,38.53
2018-11-23T07:58:39.907Z,35.90
2018-11-23T08:01:08.319Z,41.70
2018-11-23T08:03:36.757Z,33.00
2018-11-23T08:06:05.339Z,33.37
2018-11-23T08:08:33.724Z,29.53
2018-11-23T08:11:06.321Z,31.40
2018-11-23T08:13:35.027Z,34.03
2018-11-23T08:16:03.438Z,36.67
2018-11-23T08:18:32.025Z,34.73
2018-11-23T08:21:00.504Z,36.80
2018-11-23T08:23:28.989Z,36.10
2018-11-23T08:25:57.336Z,38.20
2018-11-23T08:28:25.725Z,34.70
2018-11-23T08:30:54.096Z,36.57
2018-11-23T08:33:22.512Z,40.20
2018-11-23T08:35:50.867Z,39.03
2018-11-23T08:38:19.284Z,35.60
2018-11-23T08:40:47.638Z,37.47
2018-11-23T08:43:16.134Z,34.30
2018-11-23T08:45:44.496Z,36.17
2018-11-23T08:48:13.387Z,32.10
2018-11-23T08:50:41.873Z,34.20
2018-11-23T08:53:10.252Z,35.37
2018-11-23T08:55:39.379Z,36.63
2018-11-23T08:58:07.827Z,33.50
2018-11-23T09:00:36.243Z,32.43
2018-11-23T09:03:04.703Z,33.93
2018-11-23T09:05:33.133Z,36.03
2018-11-23T09:08:01.591Z,36.50
2018-11-23T09:10:31.158Z,32.97
2018-11-23T09:13:01.382Z,37.63
2018-11-23T09:15:29.791Z,38.30
2018-11-23T09:17:58.440Z,39.30
2018-11-23T09:20:26.846Z,32.93
2018-11-23T09:22:55.291Z,35.47
2018-11-23T09:25:24.255Z,35.30
2018-11-23T09:27:52.842Z,39.20
2018-11-23T09:30:23.598Z,41.90
2018-11-23T09:32:52.781Z,38.13
2018-11-23T09:35:21.255Z,37.97
2018-11-23T09:37:50.039Z,35.40
2018-11-23T09:40:20.041Z,36.40
2018-11-23T09:42:48.790Z,38.97
2018-11-23T09:45:18.838Z,40.40
2018-11-23T09:47:48.271Z,39.83
2018-11-23T09:50:18.122Z,37.50
2018-11-23T09:52:47.727Z,37.37
2018-11-23T09:55:16.414Z,35.53
2018-11-23T09:57:44.897Z,32.60
2018-11-23T10:00:21.244Z,37.93
2018-11-23T10:02:50.753Z,44.27
2018-11-23T10:05:19.613Z,36.07
2018-11-23T10:07:49.544Z,35.70
2018-11-23T10:10:18.927Z,33.50
2018-11-23T10:12:47.313Z,35.30
2018-11-23T10:15:17.068Z,33.03
2018-11-23T10:17:45.540Z,31.83
2018-11-23T10:20:17.382Z,38.33
2018-11-23T10:22:46.141Z,33.37
2018-11-23T10:25:16.358Z,30.17
2018-11-23T10:27:45.072Z,33.07
2018-11-23T10:30:19.305Z,28.93
2018-11-23T10:32:48.774Z,32.97
2018-11-23T10:35:17.229Z,36.07
2018-11-23T10:37:46.774Z,37.37
2018-11-23T10:40:17.957Z,31.53
2018-11-23T10:42:46.380Z,34.83
2018-11-23T10:45:17.517Z,28.97
2018-11-23T10:47:46.620Z,33.00
2018-11-23T10:50:16.763Z,35.57
2018-11-23T10:52:45.332Z,39.60
2018-11-23T10:55:16.183Z,36.83
2018-11-23T10:57:44.636Z,31.87
2018-11-23T11:00:19.468Z,38.60
2018-11-23T11:02:53.264Z,33.80
2018-11-23T11:05:27.081Z,30.50
2018-11-23T11:07:57.017Z,33.97
2018-11-23T11:10:25.476Z,34.67
2018-11-23T11:12:53.875Z,32.70
2018-11-23T11:15:22.470Z,28.70
2018-11-23T11:17:50.857Z,32.33
2018-11-23T11:20:19.741Z,31.10
2018-11-23T11:22:48.267Z,32.13
2018-11-23T11:25:16.672Z,33.90
2018-11-23T11:27:45.052Z,31.63
2018-11-23T11:30:15.499Z,33.13
2018-11-23T11:32:44.267Z,36.57
2018-11-23T11:35:13.185Z,32.10
2018-11-23T11:37:42.108Z,31.97
2018-11-23T11:40:12.623Z,36.77
2018-11-23T11:42:41.599Z,33.97
2018-11-23T11:45:12.061Z,27.57
2018-11-23T11:47:40.801Z,31.97
2018-11-23T11:50:10.407Z,33.83
2018-11-23T11:52:39.919Z,30.67
2018-11-23T11:55:10.181Z,35.13
2018-11-23T11:57:39.150Z,32.80
2018-11-23T12:00:10.453Z,34.53
2018-11-23T12:02:38.817Z,31.87
2018-11-23T12:05:08.486Z,33.73
2018-11-23T12:07:36.972Z,32.67
2018-11-23T12:10:07.478Z,33.23
2018-11-23T12:12:35.959Z,33.20
2018-11-23T12:15:04.840Z,33.47
2018-11-23T12:17:33.219Z,30.53
2018-11-23T12:20:01.696Z,32.80
2018-11-23T12:22:30.100Z,37.13
2018-11-23T12:24:59.435Z,28.50
2018-11-23T12:27:29.495Z,42.23
2018-11-23T12:29:56.379Z,36.73
2018-11-23T12:32:24.770Z,34.80
2018-11-23T12:34:53.431Z,34.77
2018-11-23T12:37:22.261Z,41.33
2018-11-23T12:39:50.911Z,44.50
2018-11-23T12:42:19.293Z,34.67
2018-11-23T12:44:47.707Z,41.57
2018-11-23T12:47:16.117Z,40.07
2018-11-23T12:49:44.594Z,37.30
2018-11-23T12:52:12.971Z,33.27
2018-11-23T12:54:41.463Z,40.20
2018-11-23T12:57:09.867Z,42.47
2018-11-23T12:59:38.288Z,31.37
2018-11-23T13:02:06.784Z,31.87
2018-11-23T13:04:35.227Z,40.40
2018-11-23T13:07:03.628Z,51.30
2018-11-23T13:09:32.064Z,44.40
2018-11-23T13:12:00.443Z,33.13
2018-11-23T13:14:28.880Z,31.87
2018-11-23T13:16:57.339Z,31.83
2018-11-23T13:19:25.807Z,44.23
2018-11-23T13:21:54.245Z,46.97
2018-11-23T13:24:22.707Z,35.50
2018-11-23T13:26:51.185Z,35.13
2018-11-23T13:29:19.668Z,42.00
2018-11-23T13:31:48.120Z,33.47
2018-11-23T13:34:16.607Z,30.00
2018-11-23T13:36:45.069Z,30.33
2018-11-23T13:39:13.535Z,30.30
2018-11-23T13:41:42.014Z,34.00
2018-11-23T13:44:10.493Z,35.87
2018-11-23T13:46:38.960Z,46.73
2018-11-23T13:49:07.411Z,44.93
2018-11-23T13:51:35.899Z,41.53
2018-11-23T13:54:04.445Z,34.90
2018-11-23T13:56:32.985Z,33.93
2018-11-23T13:59:01.437Z,60.77
2018-11-23T14:01:29.852Z,45.93
2018-11-23T14:03:58.320Z,52.20
2018-11-23T14:06:26.796Z,42.53
2018-11-23T14:08:55.254Z,54.47
2018-11-23T14:11:23.717Z,60.17
2018-11-23T14:13:52.164Z,43.83
2018-11-23T14:16:20.675Z,44.73
2018-11-23T14:18:49.079Z,65.97
2018-11-23T14:21:17.568Z,36.17
2018-11-23T14:23:46.027Z,46.20
2018-11-23T14:26:14.629Z,44.30
2018-11-23T14:28:43.258Z,42.13
2018-11-23T14:31:11.874Z,38.60
2018-11-23T14:33:40.286Z,35.17
2018-11-23T14:36:08.796Z,34.53
2018-11-23T14:38:37.199Z,36.57
2018-11-23T14:41:05.698Z,35.33
2018-11-23T14:43:34.122Z,35.00
2018-11-23T14:46:02.525Z,35.57
2018-11-23T14:48:30.955Z,51.47
2018-11-23T14:51:00.068Z,40.83
2018-11-23T14:53:28.472Z,72.53
2018-11-23T14:55:56.929Z,64.07
2018-11-23T14:58:25.340Z,61.10
2018-11-23T15:00:53.808Z,103.17
2018-11-23T15:03:22.189Z,64.70
2018-11-23T15:05:50.588Z,55.27
2018-11-23T15:08:18.983Z,59.10
2018-11-23T15:10:47.479Z,79.37
2018-11-23T15:13:17.337Z,77.17
2018-11-23T15:15:45.778Z,46.07
2018-11-23T15:18:14.144Z,40.67
2018-11-23T15:20:44.432Z,81.50
2018-11-23T15:23:16.357Z,46.50
2018-11-23T15:25:45.000Z,52.03
2018-11-23T15:28:13.995Z,45.37
2018-11-23T15:30:43.332Z,35.83
2018-11-23T15:33:13.432Z,36.10
2018-11-23T15:35:42.860Z,38.40
2018-11-23T15:38:13.265Z,35.80
2018-11-23T15:40:42.601Z,40.97
2018-11-23T15:43:12.360Z,34.83
2018-11-23T15:45:40.758Z,34.73
2018-11-23T15:48:09.856Z,35.07
2018-11-23T15:50:39.660Z,35.37
2018-11-23T15:53:09.582Z,34.87
2018-11-23T15:55:39.048Z,36.27
2018-11-23T15:58:09.209Z,31.30
2018-11-23T16:00:38.895Z,58.97
2018-11-23T16:03:08.794Z,45.43
2018-11-23T16:05:37.419Z,40.73
2018-11-23T16:08:07.723Z,32.60
2018-11-23T16:10:37.163Z,35.53
2018-11-23T16:13:11.361Z,42.60
2018-11-23T16:15:35.729Z,36.13
2018-11-23T16:18:04.591Z,32.90
2018-11-23T16:20:35.373Z,33.67
2018-11-23T16:23:05.741Z,42.83
2018-11-23T16:25:34.679Z,40.40
2018-11-23T16:28:04.451Z,39.03
2018-11-23T16:30:34.295Z,36.00
2018-11-23T16:33:04.187Z,39.27
2018-11-23T16:35:35.162Z,32.67
2018-11-23T16:38:05.388Z,31.00
2018-11-23T16:40:35.069Z,36.80
2018-11-23T16:43:03.934Z,30.23
2018-11-23T16:45:33.568Z,32.70
2018-11-23T16:48:03.252Z,33.13
2018-11-23T16:50:32.025Z,37.33
2018-11-23T16:53:00.738Z,45.07
2018-11-23T16:55:29.346Z,40.50
2018-11-23T16:57:59.264Z,70.63
2018-11-23T17:00:28.979Z,65.73
2018-11-23T17:02:58.644Z,63.93
2018-11-23T17:05:28.692Z,82.93
2018-11-23T17:07:57.081Z,35.10
2018-11-23T17:10:25.526Z,62.73
2018-11-23T17:12:53.959Z,44.87
2018-11-23T17:15:23.851Z,65.70
2018-11-23T17:17:52.287Z,43.37
2018-11-23T17:20:22.067Z,61.47
2018-11-23T17:22:51.404Z,49.97
2018-11-23T17:25:21.147Z,28.27
2018-11-23T17:27:49.764Z,22.27
2018-11-23T17:30:21.275Z,27.23
2018-11-23T17:32:49.694Z,21.47
2018-11-23T17:35:18.133Z,20.20
2018-11-23T17:37:46.582Z,51.67
2018-11-23T17:40:16.741Z,44.63
2018-11-23T17:42:45.195Z,51.47
2018-11-23T17:45:16.388Z,30.67
2018-11-23T17:47:44.819Z,63.30
2018-11-23T17:50:15.260Z,36.87
2018-11-23T17:52:43.998Z,27.30
2018-11-23T17:55:13.069Z,26.83
2018-11-23T17:57:42.160Z,27.27
2018-11-23T18:00:14.204Z,26.77
2018-11-23T18:02:43.152Z,33.23
2018-11-23T18:05:18.976Z,33.53
2018-11-23T18:07:47.927Z,24.33
2018-11-23T18:10:18.910Z,28.60
2018-11-23T18:12:47.827Z,24.13
2018-11-23T18:15:18.707Z,30.40
2018-11-23T18:17:47.773Z,28.93
2018-11-23T18:20:17.412Z,33.53
2018-11-23T18:22:46.421Z,30.73
2018-11-23T18:25:46.652Z,31.27
2018-11-23T18:28:15.127Z,35.27
2018-11-23T18:30:43.662Z,31.17
2018-11-23T18:33:12.187Z,28.50
2018-11-23T18:35:40.682Z,30.17
2018-11-23T18:38:09.172Z,35.50
2018-11-23T18:40:37.894Z,34.87
2018-11-23T18:43:06.505Z,43.47
2018-11-23T18:45:35.147Z,31.00
2018-11-23T18:48:03.661Z,28.93
2018-11-23T18:50:32.125Z,82.07
2018-11-23T18:53:00.667Z,47.43
2018-11-23T18:55:29.184Z,30.30
2018-11-23T18:57:58.764Z,55.20
2018-11-23T19:00:27.245Z,75.77
2018-11-23T19:02:55.836Z,81.17
2018-11-23T19:05:26.437Z,40.43
2018-11-23T19:07:54.961Z,46.33
2018-11-23T19:10:23.613Z,71.07
2018-11-23T19:12:52.118Z,57.77
2018-11-23T19:15:25.571Z,34.07
2018-11-23T19:17:49.177Z,29.60
2018-11-23T19:20:22.468Z,26.10
2018-11-23T19:22:54.034Z,21.70
2018-11-23T19:25:22.500Z,98.77
2018-11-23T19:27:51.139Z,133.33
2018-11-23T19:30:28.663Z,62.87
2018-11-23T19:32:52.576Z,82.50
2018-11-23T19:35:21.102Z,77.10
2018-11-23T19:37:49.918Z,76.93
2018-11-23T19:40:18.400Z,104.77
2018-11-23T19:42:46.912Z,45.53
2018-11-23T19:45:17.792Z,29.83
2018-11-23T19:50:26.041Z,21.53
2018-11-23T19:52:54.782Z,16.97
2018-11-23T19:55:23.314Z,40.37
2018-11-23T19:57:51.895Z,56.37
2018-11-23T20:00:26.892Z,73.10
2018-11-23T20:02:55.452Z,35.57
2018-11-23T20:05:24.073Z,63.80
2018-11-23T20:07:55.275Z,62.73
2018-11-23T20:10:24.561Z,54.50
2018-11-23T20:12:55.085Z,49.83
2018-11-23T20:15:23.938Z,53.83
2018-11-23T20:17:52.478Z,20.43
2018-11-23T20:20:21.078Z,14.73
2018-11-23T20:22:50.511Z,33.30
2018-11-23T20:25:20.029Z,63.90
2018-11-23T20:27:51.314Z,64.90
2018-11-23T20:30:20.313Z,64.03
2018-11-23T20:32:49.035Z,30.60
2018-11-23T20:35:18.841Z,16.97
2018-11-23T20:37:47.350Z,18.70
2018-11-23T20:40:17.880Z,45.60
2018-11-23T20:42:46.433Z,42.17
2018-11-23T20:45:21.595Z,39.00
2018-11-23T20:47:50.104Z,28.43
2018-11-23T20:50:18.838Z,53.80
2018-11-23T20:52:47.301Z,22.40
2018-11-23T20:55:22.672Z,15.90
2018-11-23T20:57:51.181Z,21.80
2018-11-23T21:00:20.505Z,30.23
2018-11-23T21:02:52.133Z,14.50
2018-11-23T21:05:21.317Z,29.30
2018-11-23T21:07:50.346Z,16.10
2018-11-23T21:10:25.912Z,20.23
2018-11-23T21:12:55.085Z,19.63
2018-11-23T21:15:27.660Z,18.77
2018-11-23T21:17:57.055Z,14.87
2018-11-23T21:20:25.794Z,14.93
2018-11-23T21:22:54.380Z,16.43
2018-11-23T21:25:22.821Z,15.73
2018-11-23T21:27:51.310Z,14.80
2018-11-23T21:30:21.073Z,16.60
2018-11-23T21:32:49.911Z,18.57
2018-11-23T21:35:18.956Z,16.10
2018-11-23T21:37:47.386Z,18.97
2018-11-23T21:40:16.763Z,14.47
2018-11-23T21:42:45.587Z,15.73
2018-11-23T21:45:15.583Z,17.37
2018-11-23T21:47:44.116Z,15.37
2018-11-23T21:50:16.725Z,18.73
2018-11-23T21:52:45.435Z,20.77
2018-11-23T21:55:23.088Z,18.50
2018-11-23T21:57:52.260Z,17.30
2018-11-23T22:00:20.682Z,19.37
2018-11-23T22:02:49.132Z,20.23
2018-11-23T22:05:17.606Z,15.13
2018-11-23T22:07:46.515Z,17.93
2018-11-23T22:10:19.131Z,16.83
2018-11-23T22:12:48.399Z,16.67
2018-11-23T22:15:18.847Z,18.93
2018-11-23T22:17:48.790Z,18.33
2018-11-23T22:20:18.403Z,17.80
2018-11-23T22:22:46.821Z,17.53
2018-11-23T22:25:20.976Z,18.17
2018-11-23T22:27:50.591Z,19.30
2018-11-23T22:30:23.697Z,19.87
2018-11-23T22:32:52.238Z,19.03
2018-11-23T22:35:20.689Z,21.77
2018-11-23T22:37:49.257Z,23.63
2018-11-23T22:40:19.418Z,19.03
2018-11-23T22:42:50.203Z,18.27
2018-11-23T22:45:18.698Z,20.57
2018-11-23T22:47:47.173Z,21.03
2018-11-23T22:50:18.953Z,19.37
2018-11-23T22:52:47.905Z,18.03
2018-11-23T22:55:16.940Z,19.27
2018-11-23T22:57:45.405Z,16.93
2018-11-23T23:00:29.019Z,24.20
2018-11-23T23:02:57.614Z,22.87
2018-11-23T23:05:26.198Z,22.53
2018-11-23T23:07:54.783Z,26.07
2018-11-23T23:10:23.269Z,29.90
2018-11-23T23:12:51.782Z,40.60
2018-11-23T23:15:20.268Z,22.73
2018-11-23T23:17:48.760Z,19.57
2018-11-23T23:20:20.416Z,17.83
2018-11-23T23:22:48.847Z,20.30
2018-11-23T23:25:17.473Z,18.63
2018-11-23T23:27:46.225Z,19.40
2018-11-23T23:30:16.814Z,19.90
2018-11-23T23:32:46.192Z,22.80
2018-11-23T23:35:16.138Z,18.57
2018-11-23T23:37:44.592Z,20.30
2018-11-23T23:40:15.277Z,18.70
2018-11-23T23:42:43.803Z,22.90
2018-11-23T23:45:13.675Z,22.00
2018-11-23T23:47:42.148Z,19.87
2018-11-23T23:50:14.765Z,21.77
2018-11-23T23:52:43.215Z,23.90
2018-11-23T23:55:11.702Z,20.03
2018-11-23T23:57:41.230Z,24.60
